Roseau, MN (56751)

3:41 PM CDT on July 23, 2016 (GMT -0500)
Roseau Municipal-Billberg | | Change Station

Elev 1060 ft 48.86 °N, 95.70 °W | Updated 7 minutes ago

Light Rain
Light Rain
66 °F
Feels Like 66 °F
N
9
Wind Variable Wind from North

Today
High -- | Low -- °F
--% Chance of Precip.
Yesterday
High -- | Low -- °F
Precip. -- in
Pressure 29.79 in
Visibility 7.0 miles
Clouds Scattered Clouds 600 ft
Scattered Clouds 1200 ft
Mostly Cloudy 1600 ft
Dew Point 61 °F
Humidity 83%
Rainfall 0.00 in
Snow Depth Not available.
5:45 AM 9:12 PM
Waning Gibbous, 82% visible
METAR KROX 232034Z AUTO 36008KT 7SM -RA SCT006 SCT012 BKN016 19/16 A2979 RMK AO2 LTG DSNT N
Pressure 29.79 in
Visibility 7.0 miles
Clouds Scattered Clouds 600 ft
Scattered Clouds 1200 ft
Mostly Cloudy 1600 ft
Dew Point 61 °F
Humidity 83%
Rainfall 0.00 in
Snow Depth Not available.
5:45 AM 9:12 PM
Waning Gibbous, 82% visible
METAR KROX 232034Z AUTO 36008KT 7SM -RA SCT006 SCT012 BKN016 19/16 A2979 RMK AO2 LTG DSNT N

10-Day Weather Forecast

Almanac

Astronomy

Jul. 23, 2016 Rise Set
Actual Time
Civil Twilight
Nautical Twilight
Astronomical Twilight
Moon
Length of Visible Light
Length of Day
Tomorrow will be .
, % of the Moon is Illuminated

Today's Extremes

State Highs State Lows

Community

WunderPhotos

Upload Photos

1,926,919 photos uploaded!

WunderBlog® & News

Nearby

Air Quality

  Air Quality AQ Index Pollutant
Not available.

Snow Depth

Station Depth Elevation

Earthquake Activity

City Distance Mag. Time & Date
Minimum magnitude displayed is 2.5.

Coastal Water Temperatures

Place Temperature

Stations

Nearby Weather Stations

Station Location Temp. Windchill Dew Point Humidity Wind Precip. Elev Updated Type
                   

Watches & Warnings

There are currently no watches in effect.